Portada
METAR-TAF:

METAR-TAF

Aeropuertos :

Jönköping, Suecia

latitud: 57-46N, longitud: 014-05E, altitud: 226 m

Observación

El informe se hizo hace 31 minutos, a las 06:50 UTC
Viento 11 kt del oeste-suroeste
Temperatura 2°C
Humedad 93%
Presión 1000 hPa
Visibilidad 10 km o más

METAR: ESGJ 210650Z AUTO 24011KT 9999 NCD 02/01 Q1000

Hora: 08:21 (07:21 UTC)

Pronóstico

El informe se hizo hace 7 horas y 2 minutos, a las 00:19 UTC
Pronóstico válido del 21 a las 00 UTC al 21 a las 02 UTC
Viento 15 kt del sur
Visibilidad: 9000 m
Nubes dispersas a una altura de 1000 ft
Cielo nuboso a una altura de 1500 ft
llovizna ligera
Probabilidad 40%
del 21 a las 00 UTC al 21 a las 02 UTC
Visibilidad: 3000 m
Cielo nuboso a una altura de 800 ft
lluvia

TAF: ESGJ 210019Z 2100/2102 18015KT 9000 -DZ SCT010 BKN015 PROB40 2100/2102 3000 RA BKN008

Observaciones y pronósticos meteorológicos de más de 4000 aeropuertos (mensajes METAR y TAF).

Los puntos amarillos y rojos representan las estaciones disponibles.

Ponga el ratón en el punto deseado para ver el nombre de la estación.

Haga clic para ver las observaciones y los pronósticos meteorológicos.

Para cambiar el mapa : haga clic en los botones verdes con una cruz de color negro para hacer un zoom, en el botón verde con un guión para alejar o en las flechas verdes para mapas adyacentes.


METAR-TAF: